首页
METAR-TAF:

METAR-TAF

机场 :

Ankeny Regional Airport

Ankeny, 艾奥瓦州, 美国

纬度: 41-41-24N, 经度: 093-33-57W, 海拔: 275米

当前天气观测

该预报发布于11分钟前的05:55 UTC
风速6节,风向东北
温度 19°C
湿度 94%
气压 1010 hPa
能見度: 16.1公里
少量云层高于6500英尺
多云层高于8000英尺
阴天层高于11000英尺

METAR: KIKV 250555Z AUTO 05006KT 10SM FEW065 BKN080 OVC110 19/18 A2982 RMK AO2

时间: 01:06 (06:06 UTC)


TAF: 丢失

超过4000个机场的气象观测和天气预报(METAR&TAF报告)。

可查询的气象台以黄色和红色小点在地图上表示。

将鼠标移到小点上方,可查看气象台名称。

然后点击查看天气观测和预报。

如需切换地图:点击带黑十字的绿色按钮放大地图;点击带横线的绿色按钮缩小地图;或者点击绿色箭头查看邻近地区的地图。


METAR-TAF: